sensor_id;sensor_type;location;lat;lon;timestamp;P1;durP1;ratioP1;P2;durP2;ratioP2
9076;SDS011;4574;51.072;17.174;2023-07-22T00:00:56;4.17;;;2.97;;
9076;SDS011;4574;51.072;17.174;2023-07-22T00:03:25;3.07;;;2.50;;
9076;SDS011;4574;51.072;17.174;2023-07-22T00:06:03;2.97;;;2.47;;
9076;SDS011;4574;51.072;17.174;2023-07-22T00:08:33;6.80;;;2.57;;
9076;SDS011;4574;51.072;17.174;2023-07-22T00:11:03;4.27;;;2.37;;
9076;SDS011;4574;51.072;17.174;2023-07-22T00:13:32;6.13;;;2.50;;
9076;SDS011;4574;51.072;17.174;2023-07-22T00:16:01;3.63;;;2.50;;
9076;SDS011;4574;51.072;17.174;2023-07-22T00:18:30;4.20;;;2.37;;
9076;SDS011;4574;51.072;17.174;2023-07-22T00:20:59;6.57;;;3.63;;
9076;SDS011;4574;51.072;17.174;2023-07-22T00:23:29;3.40;;;2.47;;
9076;SDS011;4574;51.072;17.174;2023-07-22T00:25:57;3.07;;;2.40;;
9076;SDS011;4574;51.072;17.174;2023-07-22T00:28:26;3.70;;;2.60;;
9076;SDS011;4574;51.072;17.174;2023-07-22T00:30:55;2.60;;;2.40;;
9076;SDS011;4574;51.072;17.174;2023-07-22T00:33:24;3.20;;;2.30;;
9076;SDS011;4574;51.072;17.174;2023-07-22T00:35:53;2.80;;;2.57;;
9076;SDS011;4574;51.072;17.174;2023-07-22T00:38:22;2.50;;;2.03;;
9076;SDS011;4574;51.072;17.174;2023-07-22T00:40:52;2.43;;;2.23;;
9076;SDS011;4574;51.072;17.174;2023-07-22T00:43:21;4.20;;;2.60;;
9076;SDS011;4574;51.072;17.174;2023-07-22T00:45:49;4.63;;;2.47;;
9076;SDS011;4574;51.072;17.174;2023-07-22T00:48:18;6.33;;;3.00;;
9076;SDS011;4574;51.072;17.174;2023-07-22T00:50:48;5.33;;;2.43;;
9076;SDS011;4574;51.072;17.174;2023-07-22T00:53:16;4.70;;;2.33;;
9076;SDS011;4574;51.072;17.174;2023-07-22T00:55:45;7.57;;;2.67;;
9076;SDS011;4574;51.072;17.174;2023-07-22T00:58:16;7.93;;;2.43;;
9076;SDS011;4574;51.072;17.174;2023-07-22T01:00:45;6.73;;;2.70;;
9076;SDS011;4574;51.072;17.174;2023-07-22T01:03:14;4.70;;;2.10;;
9076;SDS011;4574;51.072;17.174;2023-07-22T01:05:43;4.83;;;2.97;;
9076;SDS011;4574;51.072;17.174;2023-07-22T01:08:12;2.60;;;2.30;;
9076;SDS011;4574;51.072;17.174;2023-07-22T01:10:41;7.17;;;2.30;;
9076;SDS011;4574;51.072;17.174;2023-07-22T01:13:10;5.90;;;2.50;;
9076;SDS011;4574;51.072;17.174;2023-07-22T01:15:40;2.20;;;2.00;;
9076;SDS011;4574;51.072;17.174;2023-07-22T01:18:09;6.00;;;2.30;;
9076;SDS011;4574;51.072;17.174;2023-07-22T01:20:38;3.83;;;2.33;;
9076;SDS011;4574;51.072;17.174;2023-07-22T01:23:09;5.73;;;2.37;;
9076;SDS011;4574;51.072;17.174;2023-07-22T01:25:38;3.67;;;2.37;;
9076;SDS011;4574;51.072;17.174;2023-07-22T01:28:08;3.77;;;2.53;;
9076;SDS011;4574;51.072;17.174;2023-07-22T01:30:37;3.37;;;2.53;;
9076;SDS011;4574;51.072;17.174;2023-07-22T01:33:06;2.90;;;2.60;;
9076;SDS011;4574;51.072;17.174;2023-07-22T01:35:35;2.37;;;2.23;;
9076;SDS011;4574;51.072;17.174;2023-07-22T01:38:03;5.37;;;2.27;;
9076;SDS011;4574;51.072;17.174;2023-07-22T01:40:33;2.80;;;2.53;;
9076;SDS011;4574;51.072;17.174;2023-07-22T01:43:02;3.67;;;2.70;;
9076;SDS011;4574;51.072;17.174;2023-07-22T01:45:32;5.20;;;2.73;;
9076;SDS011;4574;51.072;17.174;2023-07-22T01:48:00;5.07;;;2.93;;
9076;SDS011;4574;51.072;17.174;2023-07-22T01:50:29;5.97;;;2.80;;
9076;SDS011;4574;51.072;17.174;2023-07-22T01:52:57;5.47;;;2.93;;
9076;SDS011;4574;51.072;17.174;2023-07-22T01:55:26;10.87;;;3.10;;
9076;SDS011;4574;51.072;17.174;2023-07-22T01:57:56;5.17;;;3.13;;
9076;SDS011;4574;51.072;17.174;2023-07-22T02:00:25;8.13;;;3.27;;
9076;SDS011;4574;51.072;17.174;2023-07-22T02:02:53;4.50;;;3.30;;
9076;SDS011;4574;51.072;17.174;2023-07-22T02:05:23;8.33;;;3.60;;
9076;SDS011;4574;51.072;17.174;2023-07-22T02:07:51;10.20;;;3.53;;
9076;SDS011;4574;51.072;17.174;2023-07-22T02:10:22;8.30;;;3.10;;
9076;SDS011;4574;51.072;17.174;2023-07-22T02:12:50;5.00;;;3.20;;
9076;SDS011;4574;51.072;17.174;2023-07-22T02:15:20;7.47;;;3.30;;
9076;SDS011;4574;51.072;17.174;2023-07-22T02:17:51;3.87;;;2.87;;
9076;SDS011;4574;51.072;17.174;2023-07-22T02:20:22;7.03;;;3.10;;
9076;SDS011;4574;51.072;17.174;2023-07-22T02:22:50;4.93;;;3.37;;
9076;SDS011;4574;51.072;17.174;2023-07-22T02:25:19;4.10;;;3.10;;
9076;SDS011;4574;51.072;17.174;2023-07-22T02:27:48;3.90;;;3.50;;
9076;SDS011;4574;51.072;17.174;2023-07-22T02:30:17;7.37;;;3.00;;
9076;SDS011;4574;51.072;17.174;2023-07-22T02:32:47;5.07;;;3.10;;
9076;SDS011;4574;51.072;17.174;2023-07-22T02:35:16;3.50;;;3.20;;
9076;SDS011;4574;51.072;17.174;2023-07-22T02:37:45;4.37;;;3.07;;
9076;SDS011;4574;51.072;17.174;2023-07-22T02:40:14;7.00;;;3.30;;
9076;SDS011;4574;51.072;17.174;2023-07-22T02:42:42;6.00;;;3.23;;
9076;SDS011;4574;51.072;17.174;2023-07-22T02:45:11;6.47;;;3.10;;
9076;SDS011;4574;51.072;17.174;2023-07-22T02:47:40;10.00;;;4.30;;
9076;SDS011;4574;51.072;17.174;2023-07-22T02:50:10;5.23;;;3.30;;
9076;SDS011;4574;51.072;17.174;2023-07-22T02:52:39;5.50;;;3.50;;
9076;SDS011;4574;51.072;17.174;2023-07-22T02:55:08;3.70;;;3.40;;
9076;SDS011;4574;51.072;17.174;2023-07-22T02:57:38;8.63;;;3.50;;
9076;SDS011;4574;51.072;17.174;2023-07-22T03:00:08;4.10;;;3.33;;
9076;SDS011;4574;51.072;17.174;2023-07-22T03:02:39;6.40;;;3.77;;
9076;SDS011;4574;51.072;17.174;2023-07-22T03:05:08;4.20;;;3.80;;
9076;SDS011;4574;51.072;17.174;2023-07-22T03:07:39;4.60;;;3.90;;
9076;SDS011;4574;51.072;17.174;2023-07-22T03:10:08;7.43;;;4.07;;
9076;SDS011;4574;51.072;17.174;2023-07-22T03:12:37;9.10;;;3.97;;
9076;SDS011;4574;51.072;17.174;2023-07-22T03:15:06;6.87;;;4.03;;
9076;SDS011;4574;51.072;17.174;2023-07-22T03:17:36;6.63;;;4.10;;
9076;SDS011;4574;51.072;17.174;2023-07-22T03:20:05;5.23;;;3.83;;
9076;SDS011;4574;51.072;17.174;2023-07-22T03:22:43;11.57;;;4.13;;
9076;SDS011;4574;51.072;17.174;2023-07-22T03:25:11;4.63;;;3.57;;
9076;SDS011;4574;51.072;17.174;2023-07-22T03:27:41;9.50;;;4.17;;
9076;SDS011;4574;51.072;17.174;2023-07-22T03:30:10;7.23;;;4.10;;
9076;SDS011;4574;51.072;17.174;2023-07-22T03:32:41;6.17;;;3.67;;
9076;SDS011;4574;51.072;17.174;2023-07-22T03:35:11;6.07;;;3.53;;
9076;SDS011;4574;51.072;17.174;2023-07-22T03:37:39;10.07;;;4.53;;
9076;SDS011;4574;51.072;17.174;2023-07-22T03:40:10;7.33;;;3.80;;
9076;SDS011;4574;51.072;17.174;2023-07-22T03:42:47;15.90;;;4.13;;
9076;SDS011;4574;51.072;17.174;2023-07-22T03:45:16;11.27;;;4.20;;
9076;SDS011;4574;51.072;17.174;2023-07-22T03:47:46;7.77;;;4.00;;
9076;SDS011;4574;51.072;17.174;2023-07-22T03:50:15;7.40;;;4.27;;
9076;SDS011;4574;51.072;17.174;2023-07-22T03:52:44;6.10;;;3.97;;
9076;SDS011;4574;51.072;17.174;2023-07-22T03:55:14;7.77;;;3.90;;
9076;SDS011;4574;51.072;17.174;2023-07-22T03:57:43;13.17;;;4.27;;
9076;SDS011;4574;51.072;17.174;2023-07-22T04:00:12;6.63;;;4.00;;
9076;SDS011;4574;51.072;17.174;2023-07-22T04:02:40;10.93;;;3.90;;
9076;SDS011;4574;51.072;17.174;2023-07-22T04:05:10;8.00;;;4.27;;
9076;SDS011;4574;51.072;17.174;2023-07-22T04:07:38;10.20;;;4.10;;
9076;SDS011;4574;51.072;17.174;2023-07-22T04:10:07;8.40;;;3.70;;
9076;SDS011;4574;51.072;17.174;2023-07-22T04:12:37;7.70;;;3.60;;
9076;SDS011;4574;51.072;17.174;2023-07-22T04:15:08;5.83;;;3.50;;
9076;SDS011;4574;51.072;17.174;2023-07-22T04:17:38;13.57;;;3.77;;
9076;SDS011;4574;51.072;17.174;2023-07-22T04:20:07;9.20;;;4.47;;
9076;SDS011;4574;51.072;17.174;2023-07-22T04:22:36;7.73;;;3.40;;
9076;SDS011;4574;51.072;17.174;2023-07-22T04:25:05;5.47;;;3.50;;
9076;SDS011;4574;51.072;17.174;2023-07-22T04:27:35;5.00;;;3.50;;
9076;SDS011;4574;51.072;17.174;2023-07-22T04:30:06;7.57;;;3.70;;
9076;SDS011;4574;51.072;17.174;2023-07-22T04:32:36;9.00;;;4.20;;
9076;SDS011;4574;51.072;17.174;2023-07-22T04:35:05;9.50;;;3.70;;
9076;SDS011;4574;51.072;17.174;2023-07-22T04:37:35;6.10;;;3.60;;
9076;SDS011;4574;51.072;17.174;2023-07-22T04:40:03;7.53;;;3.97;;
9076;SDS011;4574;51.072;17.174;2023-07-22T04:42:35;10.70;;;3.70;;
9076;SDS011;4574;51.072;17.174;2023-07-22T04:45:06;7.73;;;3.77;;
9076;SDS011;4574;51.072;17.174;2023-07-22T04:47:36;4.30;;;3.63;;
9076;SDS011;4574;51.072;17.174;2023-07-22T04:50:05;4.73;;;3.17;;
9076;SDS011;4574;51.072;17.174;2023-07-22T04:52:36;5.47;;;3.20;;
9076;SDS011;4574;51.072;17.174;2023-07-22T04:55:05;6.27;;;3.23;;
9076;SDS011;4574;51.072;17.174;2023-07-22T04:57:35;5.77;;;3.20;;
9076;SDS011;4574;51.072;17.174;2023-07-22T05:00:06;5.03;;;3.40;;
9076;SDS011;4574;51.072;17.174;2023-07-22T05:02:38;9.87;;;3.23;;
9076;SDS011;4574;51.072;17.174;2023-07-22T05:05:07;5.20;;;3.27;;
9076;SDS011;4574;51.072;17.174;2023-07-22T05:07:36;5.27;;;3.10;;
9076;SDS011;4574;51.072;17.174;2023-07-22T05:10:05;5.57;;;2.87;;
9076;SDS011;4574;51.072;17.174;2023-07-22T05:12:39;3.10;;;2.80;;
9076;SDS011;4574;51.072;17.174;2023-07-22T05:15:09;3.27;;;2.97;;
9076;SDS011;4574;51.072;17.174;2023-07-22T05:17:38;4.40;;;2.93;;
9076;SDS011;4574;51.072;17.174;2023-07-22T05:20:07;8.43;;;3.47;;
9076;SDS011;4574;51.072;17.174;2023-07-22T05:22:37;2.73;;;2.53;;
9076;SDS011;4574;51.072;17.174;2023-07-22T05:25:06;4.10;;;3.07;;
9076;SDS011;4574;51.072;17.174;2023-07-22T05:27:36;3.97;;;2.47;;
9076;SDS011;4574;51.072;17.174;2023-07-22T05:30:05;2.97;;;2.70;;
9076;SDS011;4574;51.072;17.174;2023-07-22T05:32:46;4.10;;;2.73;;
9076;SDS011;4574;51.072;17.174;2023-07-22T05:35:15;5.13;;;2.43;;
9076;SDS011;4574;51.072;17.174;2023-07-22T05:37:44;2.87;;;2.50;;
9076;SDS011;4574;51.072;17.174;2023-07-22T05:40:12;4.00;;;2.60;;
9076;SDS011;4574;51.072;17.174;2023-07-22T05:42:41;4.23;;;2.33;;
9076;SDS011;4574;51.072;17.174;2023-07-22T05:45:10;3.83;;;2.33;;
9076;SDS011;4574;51.072;17.174;2023-07-22T05:47:42;2.73;;;2.50;;
9076;SDS011;4574;51.072;17.174;2023-07-22T05:50:12;4.20;;;2.80;;
9076;SDS011;4574;51.072;17.174;2023-07-22T05:52:41;2.43;;;2.23;;
9076;SDS011;4574;51.072;17.174;2023-07-22T05:55:09;6.03;;;2.70;;
9076;SDS011;4574;51.072;17.174;2023-07-22T05:57:38;4.57;;;2.67;;
9076;SDS011;4574;51.072;17.174;2023-07-22T06:00:07;2.30;;;2.20;;
9076;SDS011;4574;51.072;17.174;2023-07-22T06:02:36;4.03;;;2.73;;
9076;SDS011;4574;51.072;17.174;2023-07-22T06:05:05;5.33;;;2.60;;
9076;SDS011;4574;51.072;17.174;2023-07-22T06:07:35;4.50;;;2.40;;
9076;SDS011;4574;51.072;17.174;2023-07-22T06:10:05;4.67;;;2.80;;
9076;SDS011;4574;51.072;17.174;2023-07-22T06:12:34;2.20;;;2.00;;
9076;SDS011;4574;51.072;17.174;2023-07-22T06:15:03;3.17;;;2.17;;
9076;SDS011;4574;51.072;17.174;2023-07-22T06:17:33;4.57;;;2.37;;
9076;SDS011;4574;51.072;17.174;2023-07-22T06:20:02;2.77;;;2.20;;
9076;SDS011;4574;51.072;17.174;2023-07-22T06:22:31;2.80;;;2.60;;
9076;SDS011;4574;51.072;17.174;2023-07-22T06:25:01;2.63;;;2.10;;
9076;SDS011;4574;51.072;17.174;2023-07-22T06:27:30;3.07;;;2.23;;
9076;SDS011;4574;51.072;17.174;2023-07-22T06:29:58;3.33;;;2.20;;
9076;SDS011;4574;51.072;17.174;2023-07-22T06:32:27;2.47;;;2.27;;
9076;SDS011;4574;51.072;17.174;2023-07-22T06:34:57;2.30;;;2.10;;
9076;SDS011;4574;51.072;17.174;2023-07-22T06:37:25;2.77;;;1.90;;
9076;SDS011;4574;51.072;17.174;2023-07-22T06:39:54;2.40;;;2.20;;
9076;SDS011;4574;51.072;17.174;2023-07-22T06:42:24;2.20;;;2.00;;
9076;SDS011;4574;51.072;17.174;2023-07-22T06:44:52;2.57;;;2.20;;
9076;SDS011;4574;51.072;17.174;2023-07-22T06:47:21;3.57;;;2.10;;
9076;SDS011;4574;51.072;17.174;2023-07-22T06:49:50;4.53;;;2.30;;
9076;SDS011;4574;51.072;17.174;2023-07-22T06:52:19;2.27;;;2.07;;
9076;SDS011;4574;51.072;17.174;2023-07-22T06:54:47;4.43;;;2.20;;
9076;SDS011;4574;51.072;17.174;2023-07-22T06:57:16;2.53;;;2.10;;
9076;SDS011;4574;51.072;17.174;2023-07-22T06:59:46;2.57;;;2.20;;
9076;SDS011;4574;51.072;17.174;2023-07-22T07:02:17;3.67;;;2.00;;
9076;SDS011;4574;51.072;17.174;2023-07-22T07:04:45;2.23;;;2.03;;
9076;SDS011;4574;51.072;17.174;2023-07-22T07:07:14;5.33;;;2.33;;
9076;SDS011;4574;51.072;17.174;2023-07-22T07:09:44;2.73;;;2.20;;
9076;SDS011;4574;51.072;17.174;2023-07-22T07:12:13;3.63;;;2.37;;
9076;SDS011;4574;51.072;17.174;2023-07-22T07:14:41;3.23;;;2.33;;
9076;SDS011;4574;51.072;17.174;2023-07-22T07:17:11;2.33;;;2.20;;
9076;SDS011;4574;51.072;17.174;2023-07-22T07:19:39;4.40;;;2.17;;
9076;SDS011;4574;51.072;17.174;2023-07-22T07:22:08;2.30;;;2.10;;
9076;SDS011;4574;51.072;17.174;2023-07-22T07:24:37;2.30;;;2.10;;
9076;SDS011;4574;51.072;17.174;2023-07-22T07:27:06;3.70;;;2.10;;
9076;SDS011;4574;51.072;17.174;2023-07-22T07:29:34;3.07;;;2.20;;
9076;SDS011;4574;51.072;17.174;2023-07-22T07:32:06;3.83;;;2.20;;
9076;SDS011;4574;51.072;17.174;2023-07-22T07:34:36;2.83;;;2.50;;
9076;SDS011;4574;51.072;17.174;2023-07-22T07:37:05;3.07;;;2.33;;
9076;SDS011;4574;51.072;17.174;2023-07-22T07:39:33;4.40;;;2.20;;
9076;SDS011;4574;51.072;17.174;2023-07-22T07:42:02;2.30;;;1.90;;
9076;SDS011;4574;51.072;17.174;2023-07-22T07:44:31;2.43;;;2.23;;
9076;SDS011;4574;51.072;17.174;2023-07-22T07:46:59;4.47;;;2.50;;
9076;SDS011;4574;51.072;17.174;2023-07-22T07:49:28;3.00;;;2.00;;
9076;SDS011;4574;51.072;17.174;2023-07-22T07:51:58;3.73;;;2.30;;
9076;SDS011;4574;51.072;17.174;2023-07-22T07:54:26;3.00;;;1.90;;
9076;SDS011;4574;51.072;17.174;2023-07-22T07:56:58;2.17;;;1.80;;
9076;SDS011;4574;51.072;17.174;2023-07-22T07:59:27;2.83;;;1.80;;
9076;SDS011;4574;51.072;17.174;2023-07-22T08:01:55;2.20;;;1.83;;
9076;SDS011;4574;51.072;17.174;2023-07-22T08:04:24;1.93;;;1.83;;
9076;SDS011;4574;51.072;17.174;2023-07-22T08:06:52;3.53;;;2.00;;
9076;SDS011;4574;51.072;17.174;2023-07-22T08:09:25;3.97;;;2.10;;
9076;SDS011;4574;51.072;17.174;2023-07-22T08:11:53;1.97;;;1.87;;
9076;SDS011;4574;51.072;17.174;2023-07-22T08:14:22;3.90;;;2.10;;
9076;SDS011;4574;51.072;17.174;2023-07-22T08:16:50;2.83;;;2.27;;
9076;SDS011;4574;51.072;17.174;2023-07-22T08:19:19;3.10;;;1.80;;
9076;SDS011;4574;51.072;17.174;2023-07-22T08:21:48;1.87;;;1.77;;
9076;SDS011;4574;51.072;17.174;2023-07-22T08:24:16;4.13;;;2.00;;
9076;SDS011;4574;51.072;17.174;2023-07-22T08:26:46;1.93;;;1.60;;
9076;SDS011;4574;51.072;17.174;2023-07-22T08:29:15;5.03;;;2.03;;
9076;SDS011;4574;51.072;17.174;2023-07-22T08:31:44;2.40;;;1.83;;
9076;SDS011;4574;51.072;17.174;2023-07-22T08:34:12;4.17;;;1.93;;
9076;SDS011;4574;51.072;17.174;2023-07-22T08:36:41;2.27;;;1.67;;
9076;SDS011;4574;51.072;17.174;2023-07-22T08:39:09;5.07;;;1.90;;
9076;SDS011;4574;51.072;17.174;2023-07-22T08:41:38;3.47;;;1.83;;
9076;SDS011;4574;51.072;17.174;2023-07-22T08:44:10;3.07;;;1.40;;
9076;SDS011;4574;51.072;17.174;2023-07-22T08:46:42;6.30;;;1.50;;
9076;SDS011;4574;51.072;17.174;2023-07-22T08:49:12;4.13;;;2.30;;
9076;SDS011;4574;51.072;17.174;2023-07-22T08:51:43;3.73;;;1.60;;
9076;SDS011;4574;51.072;17.174;2023-07-22T08:54:13;3.60;;;1.80;;
9076;SDS011;4574;51.072;17.174;2023-07-22T08:56:42;2.03;;;1.50;;
9076;SDS011;4574;51.072;17.174;2023-07-22T08:59:14;2.63;;;1.57;;
9076;SDS011;4574;51.072;17.174;2023-07-22T09:01:43;2.63;;;1.37;;
9076;SDS011;4574;51.072;17.174;2023-07-22T09:04:12;1.80;;;1.30;;
9076;SDS011;4574;51.072;17.174;2023-07-22T09:06:42;3.60;;;1.00;;
9076;SDS011;4574;51.072;17.174;2023-07-22T09:09:12;1.70;;;1.60;;
9076;SDS011;4574;51.072;17.174;2023-07-22T09:11:42;1.50;;;1.40;;
9076;SDS011;4574;51.072;17.174;2023-07-22T09:14:11;3.23;;;1.30;;
9076;SDS011;4574;51.072;17.174;2023-07-22T09:17:01;1.50;;;1.10;;
9076;SDS011;4574;51.072;17.174;2023-07-22T09:19:29;1.43;;;1.13;;
9076;SDS011;4574;51.072;17.174;2023-07-22T09:21:58;1.90;;;1.33;;
9076;SDS011;4574;51.072;17.174;2023-07-22T09:24:26;2.07;;;1.37;;
9076;SDS011;4574;51.072;17.174;2023-07-22T09:26:57;1.57;;;1.30;;
9076;SDS011;4574;51.072;17.174;2023-07-22T09:29:34;1.47;;;1.30;;
9076;SDS011;4574;51.072;17.174;2023-07-22T09:32:05;1.60;;;1.40;;
9076;SDS011;4574;51.072;17.174;2023-07-22T09:34:34;1.80;;;1.50;;
9076;SDS011;4574;51.072;17.174;2023-07-22T09:37:03;1.30;;;1.20;;
9076;SDS011;4574;51.072;17.174;2023-07-22T09:39:32;2.87;;;1.63;;
9076;SDS011;4574;51.072;17.174;2023-07-22T09:42:03;1.57;;;1.47;;
9076;SDS011;4574;51.072;17.174;2023-07-22T09:44:32;3.43;;;1.53;;
9076;SDS011;4574;51.072;17.174;2023-07-22T09:47:07;1.30;;;1.20;;
9076;SDS011;4574;51.072;17.174;2023-07-22T09:49:40;3.67;;;1.93;;
9076;SDS011;4574;51.072;17.174;2023-07-22T09:52:10;2.73;;;1.37;;
9076;SDS011;4574;51.072;17.174;2023-07-22T09:54:46;3.37;;;1.50;;
9076;SDS011;4574;51.072;17.174;2023-07-22T09:57:16;3.93;;;1.80;;
9076;SDS011;4574;51.072;17.174;2023-07-22T09:59:45;1.63;;;1.50;;
9076;SDS011;4574;51.072;17.174;2023-07-22T10:02:18;3.40;;;1.50;;
9076;SDS011;4574;51.072;17.174;2023-07-22T10:04:50;2.77;;;1.60;;
9076;SDS011;4574;51.072;17.174;2023-07-22T10:07:20;2.47;;;1.73;;
9076;SDS011;4574;51.072;17.174;2023-07-22T10:09:49;4.00;;;2.17;;
9076;SDS011;4574;51.072;17.174;2023-07-22T10:12:22;3.83;;;1.60;;
9076;SDS011;4574;51.072;17.174;2023-07-22T10:14:53;3.57;;;1.47;;
9076;SDS011;4574;51.072;17.174;2023-07-22T10:17:22;2.53;;;1.53;;
9076;SDS011;4574;51.072;17.174;2023-07-22T10:19:52;1.57;;;1.47;;
9076;SDS011;4574;51.072;17.174;2023-07-22T10:22:21;1.70;;;1.60;;
9076;SDS011;4574;51.072;17.174;2023-07-22T10:24:50;3.17;;;1.80;;
9076;SDS011;4574;51.072;17.174;2023-07-22T10:27:22;4.13;;;1.73;;
9076;SDS011;4574;51.072;17.174;2023-07-22T10:29:54;2.20;;;1.80;;
9076;SDS011;4574;51.072;17.174;2023-07-22T10:32:24;3.20;;;1.57;;
9076;SDS011;4574;51.072;17.174;2023-07-22T10:34:59;2.60;;;2.03;;
9076;SDS011;4574;51.072;17.174;2023-07-22T10:37:31;4.17;;;1.93;;
9076;SDS011;4574;51.072;17.174;2023-07-22T10:40:00;2.10;;;1.70;;
9076;SDS011;4574;51.072;17.174;2023-07-22T10:42:50;1.70;;;1.60;;
9076;SDS011;4574;51.072;17.174;2023-07-22T10:45:23;1.93;;;1.60;;
9076;SDS011;4574;51.072;17.174;2023-07-22T10:48:02;3.33;;;1.57;;
9076;SDS011;4574;51.072;17.174;2023-07-22T10:50:39;1.80;;;1.70;;
9076;SDS011;4574;51.072;17.174;2023-07-22T10:53:13;1.77;;;1.67;;
9076;SDS011;4574;51.072;17.174;2023-07-22T10:56:07;3.23;;;1.77;;
9076;SDS011;4574;51.072;17.174;2023-07-22T10:58:57;5.33;;;1.70;;
9076;SDS011;4574;51.072;17.174;2023-07-22T11:01:33;2.27;;;1.70;;
9076;SDS011;4574;51.072;17.174;2023-07-22T11:04:12;2.90;;;2.43;;
9076;SDS011;4574;51.072;17.174;2023-07-22T11:09:35;2.03;;;1.67;;
9076;SDS011;4574;51.072;17.174;2023-07-22T11:12:06;2.90;;;1.53;;
9076;SDS011;4574;51.072;17.174;2023-07-22T11:14:38;1.83;;;1.50;;
9076;SDS011;4574;51.072;17.174;2023-07-22T11:17:07;8.80;;;1.73;;
9076;SDS011;4574;51.072;17.174;2023-07-22T11:19:39;3.67;;;1.60;;
9076;SDS011;4574;51.072;17.174;2023-07-22T11:22:10;1.60;;;1.50;;
9076;SDS011;4574;51.072;17.174;2023-07-22T11:24:40;2.93;;;1.60;;
9076;SDS011;4574;51.072;17.174;2023-07-22T11:27:09;2.73;;;1.50;;
9076;SDS011;4574;51.072;17.174;2023-07-22T11:29:38;3.93;;;1.30;;
9076;SDS011;4574;51.072;17.174;2023-07-22T11:32:14;5.33;;;1.50;;
9076;SDS011;4574;51.072;17.174;2023-07-22T11:34:44;2.00;;;1.50;;
9076;SDS011;4574;51.072;17.174;2023-07-22T11:37:14;3.30;;;1.87;;
9076;SDS011;4574;51.072;17.174;2023-07-22T11:39:43;1.93;;;1.60;;
9076;SDS011;4574;51.072;17.174;2023-07-22T11:42:12;3.57;;;1.67;;
9076;SDS011;4574;51.072;17.174;2023-07-22T11:44:41;1.93;;;1.60;;
9076;SDS011;4574;51.072;17.174;2023-07-22T11:47:10;3.23;;;1.60;;
9076;SDS011;4574;51.072;17.174;2023-07-22T11:49:39;1.43;;;1.33;;
9076;SDS011;4574;51.072;17.174;2023-07-22T11:52:14;1.60;;;1.50;;
9076;SDS011;4574;51.072;17.174;2023-07-22T11:54:45;2.80;;;1.50;;
9076;SDS011;4574;51.072;17.174;2023-07-22T11:57:15;4.47;;;1.83;;
9076;SDS011;4574;51.072;17.174;2023-07-22T11:59:44;2.07;;;1.87;;
9076;SDS011;4574;51.072;17.174;2023-07-22T12:02:14;2.03;;;1.60;;
9076;SDS011;4574;51.072;17.174;2023-07-22T12:04:43;2.03;;;1.63;;
9076;SDS011;4574;51.072;17.174;2023-07-22T12:07:25;2.70;;;1.70;;
9076;SDS011;4574;51.072;17.174;2023-07-22T12:09:55;5.37;;;1.83;;
9076;SDS011;4574;51.072;17.174;2023-07-22T12:12:31;2.73;;;1.70;;
9076;SDS011;4574;51.072;17.174;2023-07-22T12:15:02;1.93;;;1.80;;
9076;SDS011;4574;51.072;17.174;2023-07-22T12:17:43;2.37;;;1.83;;
9076;SDS011;4574;51.072;17.174;2023-07-22T12:20:13;2.53;;;1.60;;
9076;SDS011;4574;51.072;17.174;2023-07-22T12:22:44;4.37;;;1.97;;
9076;SDS011;4574;51.072;17.174;2023-07-22T12:25:13;2.17;;;1.97;;
9076;SDS011;4574;51.072;17.174;2023-07-22T12:27:41;2.23;;;1.70;;
9076;SDS011;4574;51.072;17.174;2023-07-22T12:30:10;3.30;;;1.70;;
9076;SDS011;4574;51.072;17.174;2023-07-22T12:32:40;5.43;;;1.80;;
9076;SDS011;4574;51.072;17.174;2023-07-22T12:35:09;4.73;;;2.07;;
9076;SDS011;4574;51.072;17.174;2023-07-22T12:37:37;3.83;;;1.70;;
9076;SDS011;4574;51.072;17.174;2023-07-22T12:40:08;2.23;;;2.03;;
9076;SDS011;4574;51.072;17.174;2023-07-22T12:42:39;2.40;;;1.80;;
9076;SDS011;4574;51.072;17.174;2023-07-22T12:45:08;2.77;;;1.73;;
9076;SDS011;4574;51.072;17.174;2023-07-22T12:47:37;4.10;;;1.70;;
9076;SDS011;4574;51.072;17.174;2023-07-22T12:50:06;1.60;;;1.50;;
9076;SDS011;4574;51.072;17.174;2023-07-22T12:52:35;5.53;;;1.80;;
9076;SDS011;4574;51.072;17.174;2023-07-22T12:55:04;2.00;;;1.57;;
9076;SDS011;4574;51.072;17.174;2023-07-22T12:57:34;1.83;;;1.50;;
9076;SDS011;4574;51.072;17.174;2023-07-22T13:00:03;3.30;;;1.70;;
9076;SDS011;4574;51.072;17.174;2023-07-22T13:02:35;1.87;;;1.63;;
9076;SDS011;4574;51.072;17.174;2023-07-22T13:05:04;1.83;;;1.60;;
9076;SDS011;4574;51.072;17.174;2023-07-22T13:07:34;2.77;;;1.40;;
9076;SDS011;4574;51.072;17.174;2023-07-22T13:10:02;2.47;;;1.60;;
9076;SDS011;4574;51.072;17.174;2023-07-22T13:12:37;1.93;;;1.60;;
9076;SDS011;4574;51.072;17.174;2023-07-22T13:15:07;2.60;;;1.70;;
9076;SDS011;4574;51.072;17.174;2023-07-22T13:17:36;3.30;;;1.80;;
9076;SDS011;4574;51.072;17.174;2023-07-22T13:20:05;2.17;;;1.97;;
9076;SDS011;4574;51.072;17.174;2023-07-22T13:22:35;1.80;;;1.67;;
9076;SDS011;4574;51.072;17.174;2023-07-22T13:25:04;2.07;;;1.80;;
9076;SDS011;4574;51.072;17.174;2023-07-22T13:27:37;1.80;;;1.50;;
9076;SDS011;4574;51.072;17.174;2023-07-22T13:30:07;2.67;;;1.70;;
9076;SDS011;4574;51.072;17.174;2023-07-22T13:32:37;2.57;;;1.80;;
9076;SDS011;4574;51.072;17.174;2023-07-22T13:35:06;2.50;;;1.60;;
9076;SDS011;4574;51.072;17.174;2023-07-22T13:37:35;1.83;;;1.40;;
9076;SDS011;4574;51.072;17.174;2023-07-22T13:40:05;2.03;;;1.60;;
9076;SDS011;4574;51.072;17.174;2023-07-22T13:42:39;1.53;;;1.43;;
9076;SDS011;4574;51.072;17.174;2023-07-22T13:45:07;2.93;;;2.10;;
9076;SDS011;4574;51.072;17.174;2023-07-22T13:47:37;2.87;;;1.63;;
9076;SDS011;4574;51.072;17.174;2023-07-22T13:50:05;2.03;;;1.30;;
9076;SDS011;4574;51.072;17.174;2023-07-22T13:52:34;1.97;;;1.50;;
9076;SDS011;4574;51.072;17.174;2023-07-22T13:55:03;1.90;;;1.60;;
9076;SDS011;4574;51.072;17.174;2023-07-22T13:57:32;1.60;;;1.30;;
9076;SDS011;4574;51.072;17.174;2023-07-22T14:00:02;2.30;;;1.80;;
9076;SDS011;4574;51.072;17.174;2023-07-22T14:02:36;1.67;;;1.57;;
9076;SDS011;4574;51.072;17.174;2023-07-22T14:05:07;1.77;;;1.47;;
9076;SDS011;4574;51.072;17.174;2023-07-22T14:07:37;1.63;;;1.50;;
9076;SDS011;4574;51.072;17.174;2023-07-22T14:10:06;2.07;;;1.50;;
9076;SDS011;4574;51.072;17.174;2023-07-22T14:12:36;2.00;;;1.80;;
9076;SDS011;4574;51.072;17.174;2023-07-22T14:15:07;4.03;;;2.00;;
9076;SDS011;4574;51.072;17.174;2023-07-22T14:17:36;1.70;;;1.60;;
9076;SDS011;4574;51.072;17.174;2023-07-22T14:20:06;2.03;;;1.80;;
9076;SDS011;4574;51.072;17.174;2023-07-22T14:22:38;2.13;;;1.60;;
9076;SDS011;4574;51.072;17.174;2023-07-22T14:25:06;2.00;;;1.50;;
9076;SDS011;4574;51.072;17.174;2023-07-22T14:27:37;2.20;;;1.60;;
9076;SDS011;4574;51.072;17.174;2023-07-22T14:30:08;3.20;;;1.50;;
9076;SDS011;4574;51.072;17.174;2023-07-22T14:32:37;2.27;;;1.60;;
9076;SDS011;4574;51.072;17.174;2023-07-22T14:35:06;1.67;;;1.57;;
9076;SDS011;4574;51.072;17.174;2023-07-22T14:37:35;1.60;;;1.50;;
9076;SDS011;4574;51.072;17.174;2023-07-22T14:40:04;3.47;;;2.63;;
9076;SDS011;4574;51.072;17.174;2023-07-22T14:42:35;3.50;;;1.80;;
9076;SDS011;4574;51.072;17.174;2023-07-22T14:45:04;2.10;;;1.90;;
9076;SDS011;4574;51.072;17.174;2023-07-22T14:47:35;1.77;;;1.67;;
9076;SDS011;4574;51.072;17.174;2023-07-22T14:50:04;3.80;;;1.90;;
9076;SDS011;4574;51.072;17.174;2023-07-22T14:52:33;2.67;;;1.80;;
9076;SDS011;4574;51.072;17.174;2023-07-22T14:55:02;1.80;;;1.60;;
9076;SDS011;4574;51.072;17.174;2023-07-22T14:57:31;1.63;;;1.53;;
9076;SDS011;4574;51.072;17.174;2023-07-22T14:59:59;1.90;;;1.80;;
9076;SDS011;4574;51.072;17.174;2023-07-22T15:02:28;3.13;;;1.53;;
9076;SDS011;4574;51.072;17.174;2023-07-22T15:04:58;1.90;;;1.80;;
9076;SDS011;4574;51.072;17.174;2023-07-22T15:07:26;1.90;;;1.70;;
9076;SDS011;4574;51.072;17.174;2023-07-22T15:09:57;1.90;;;1.70;;
9076;SDS011;4574;51.072;17.174;2023-07-22T15:12:26;2.23;;;1.90;;
9076;SDS011;4574;51.072;17.174;2023-07-22T15:14:55;3.63;;;1.80;;
9076;SDS011;4574;51.072;17.174;2023-07-22T15:17:23;1.70;;;1.60;;
9076;SDS011;4574;51.072;17.174;2023-07-22T15:19:52;2.53;;;1.73;;